sensor_id;sensor_type;location;lat;lon;timestamp;P1;durP1;ratioP1;P2;durP2;ratioP2
10134;SDS011;5107;48.850;8.924;2023-10-08T00:00:21;5.00;;;2.90;;
10134;SDS011;5107;48.850;8.924;2023-10-08T00:03:08;8.67;;;3.87;;
10134;SDS011;5107;48.850;8.924;2023-10-08T00:05:35;4.10;;;2.80;;
10134;SDS011;5107;48.850;8.924;2023-10-08T00:08:04;5.80;;;3.40;;
10134;SDS011;5107;48.850;8.924;2023-10-08T00:10:34;6.57;;;2.90;;
10134;SDS011;5107;48.850;8.924;2023-10-08T00:13:05;4.97;;;2.93;;
10134;SDS011;5107;48.850;8.924;2023-10-08T00:15:37;5.87;;;3.30;;
10134;SDS011;5107;48.850;8.924;2023-10-08T00:18:22;5.90;;;3.40;;
10134;SDS011;5107;48.850;8.924;2023-10-08T00:20:49;5.70;;;3.00;;
10134;SDS011;5107;48.850;8.924;2023-10-08T00:23:41;5.07;;;3.27;;
10134;SDS011;5107;48.850;8.924;2023-10-08T00:26:25;5.20;;;2.97;;
10134;SDS011;5107;48.850;8.924;2023-10-08T00:28:58;5.73;;;3.40;;
10134;SDS011;5107;48.850;8.924;2023-10-08T00:31:25;6.37;;;3.50;;
10134;SDS011;5107;48.850;8.924;2023-10-08T00:33:55;8.87;;;3.40;;
10134;SDS011;5107;48.850;8.924;2023-10-08T00:36:21;5.27;;;3.57;;
10134;SDS011;5107;48.850;8.924;2023-10-08T00:38:49;5.43;;;3.33;;
10134;SDS011;5107;48.850;8.924;2023-10-08T00:41:20;6.73;;;3.50;;
10134;SDS011;5107;48.850;8.924;2023-10-08T00:43:49;6.07;;;3.20;;
10134;SDS011;5107;48.850;8.924;2023-10-08T00:46:16;3.83;;;2.87;;
10134;SDS011;5107;48.850;8.924;2023-10-08T00:48:49;4.67;;;3.20;;
10134;SDS011;5107;48.850;8.924;2023-10-08T00:51:19;5.07;;;3.30;;
10134;SDS011;5107;48.850;8.924;2023-10-08T00:54:05;4.03;;;3.03;;
10134;SDS011;5107;48.850;8.924;2023-10-08T00:56:36;5.00;;;3.30;;
10134;SDS011;5107;48.850;8.924;2023-10-08T00:59:24;7.40;;;3.37;;
10134;SDS011;5107;48.850;8.924;2023-10-08T01:01:50;4.63;;;3.07;;
10134;SDS011;5107;48.850;8.924;2023-10-08T01:04:23;4.60;;;3.20;;
10134;SDS011;5107;48.850;8.924;2023-10-08T01:06:51;5.13;;;3.07;;
10134;SDS011;5107;48.850;8.924;2023-10-08T01:09:24;4.73;;;3.20;;
10134;SDS011;5107;48.850;8.924;2023-10-08T01:14:47;5.47;;;3.30;;
10134;SDS011;5107;48.850;8.924;2023-10-08T01:17:15;6.73;;;3.27;;
10134;SDS011;5107;48.850;8.924;2023-10-08T01:19:44;5.30;;;2.90;;
10134;SDS011;5107;48.850;8.924;2023-10-08T01:22:14;6.00;;;3.20;;
10134;SDS011;5107;48.850;8.924;2023-10-08T01:24:50;4.30;;;2.97;;
10134;SDS011;5107;48.850;8.924;2023-10-08T01:27:16;4.90;;;3.20;;
10134;SDS011;5107;48.850;8.924;2023-10-08T01:29:52;6.93;;;3.33;;
10134;SDS011;5107;48.850;8.924;2023-10-08T01:32:18;4.33;;;2.60;;
10134;SDS011;5107;48.850;8.924;2023-10-08T01:34:44;4.60;;;3.00;;
10134;SDS011;5107;48.850;8.924;2023-10-08T01:37:13;3.73;;;2.87;;
10134;SDS011;5107;48.850;8.924;2023-10-08T01:39:42;4.50;;;2.97;;
10134;SDS011;5107;48.850;8.924;2023-10-08T01:42:08;5.50;;;3.20;;
10134;SDS011;5107;48.850;8.924;2023-10-08T01:44:41;4.70;;;2.93;;
10134;SDS011;5107;48.850;8.924;2023-10-08T01:47:11;5.70;;;3.00;;
10134;SDS011;5107;48.850;8.924;2023-10-08T01:49:37;4.13;;;3.00;;
10134;SDS011;5107;48.850;8.924;2023-10-08T01:52:04;5.77;;;2.83;;
10134;SDS011;5107;48.850;8.924;2023-10-08T01:54:32;7.37;;;3.17;;
10134;SDS011;5107;48.850;8.924;2023-10-08T01:57:00;3.73;;;2.90;;
10134;SDS011;5107;48.850;8.924;2023-10-08T01:59:26;4.97;;;2.90;;
10134;SDS011;5107;48.850;8.924;2023-10-08T02:01:51;6.27;;;2.70;;
10134;SDS011;5107;48.850;8.924;2023-10-08T02:04:20;6.10;;;3.60;;
10134;SDS011;5107;48.850;8.924;2023-10-08T02:06:46;6.23;;;2.80;;
10134;SDS011;5107;48.850;8.924;2023-10-08T02:09:12;5.30;;;3.20;;
10134;SDS011;5107;48.850;8.924;2023-10-08T02:11:48;6.23;;;3.37;;
10134;SDS011;5107;48.850;8.924;2023-10-08T02:14:18;5.93;;;3.50;;
10134;SDS011;5107;48.850;8.924;2023-10-08T02:16:45;5.40;;;3.77;;
10134;SDS011;5107;48.850;8.924;2023-10-08T02:19:10;5.87;;;3.50;;
10134;SDS011;5107;48.850;8.924;2023-10-08T02:21:36;4.67;;;3.60;;
10134;SDS011;5107;48.850;8.924;2023-10-08T02:24:05;5.80;;;3.37;;
10134;SDS011;5107;48.850;8.924;2023-10-08T02:26:36;6.23;;;3.20;;
10134;SDS011;5107;48.850;8.924;2023-10-08T02:29:01;7.73;;;3.77;;
10134;SDS011;5107;48.850;8.924;2023-10-08T02:31:27;4.77;;;3.30;;
10134;SDS011;5107;48.850;8.924;2023-10-08T02:33:53;5.00;;;3.57;;
10134;SDS011;5107;48.850;8.924;2023-10-08T02:36:18;5.77;;;3.40;;
10134;SDS011;5107;48.850;8.924;2023-10-08T02:38:44;3.70;;;3.00;;
10134;SDS011;5107;48.850;8.924;2023-10-08T02:41:10;6.50;;;3.40;;
10134;SDS011;5107;48.850;8.924;2023-10-08T02:43:41;5.97;;;3.67;;
10134;SDS011;5107;48.850;8.924;2023-10-08T02:46:07;4.07;;;3.17;;
10134;SDS011;5107;48.850;8.924;2023-10-08T02:48:35;6.67;;;3.70;;
10134;SDS011;5107;48.850;8.924;2023-10-08T02:51:00;4.93;;;2.73;;
10134;SDS011;5107;48.850;8.924;2023-10-08T02:53:41;6.27;;;3.67;;
10134;SDS011;5107;48.850;8.924;2023-10-08T02:56:08;7.63;;;3.23;;
10134;SDS011;5107;48.850;8.924;2023-10-08T02:58:41;5.50;;;4.00;;
10134;SDS011;5107;48.850;8.924;2023-10-08T03:01:09;5.40;;;3.50;;
10134;SDS011;5107;48.850;8.924;2023-10-08T03:03:41;5.47;;;3.77;;
10134;SDS011;5107;48.850;8.924;2023-10-08T03:06:11;5.03;;;3.40;;
10134;SDS011;5107;48.850;8.924;2023-10-08T03:08:39;4.40;;;3.07;;
10134;SDS011;5107;48.850;8.924;2023-10-08T03:11:08;6.03;;;3.33;;
10134;SDS011;5107;48.850;8.924;2023-10-08T03:13:41;8.23;;;3.37;;
10134;SDS011;5107;48.850;8.924;2023-10-08T03:16:11;6.97;;;3.20;;
10134;SDS011;5107;48.850;8.924;2023-10-08T03:18:40;6.57;;;3.23;;
10134;SDS011;5107;48.850;8.924;2023-10-08T03:21:10;5.00;;;3.30;;
10134;SDS011;5107;48.850;8.924;2023-10-08T03:23:48;6.60;;;2.97;;
10134;SDS011;5107;48.850;8.924;2023-10-08T03:26:15;4.67;;;3.03;;
10134;SDS011;5107;48.850;8.924;2023-10-08T03:28:56;4.73;;;3.20;;
10134;SDS011;5107;48.850;8.924;2023-10-08T03:31:24;4.27;;;2.93;;
10134;SDS011;5107;48.850;8.924;2023-10-08T03:34:16;5.47;;;3.00;;
10134;SDS011;5107;48.850;8.924;2023-10-08T03:36:44;5.10;;;3.30;;
10134;SDS011;5107;48.850;8.924;2023-10-08T03:39:10;8.23;;;3.40;;
10134;SDS011;5107;48.850;8.924;2023-10-08T03:41:38;4.73;;;2.80;;
10134;SDS011;5107;48.850;8.924;2023-10-08T03:44:05;4.60;;;2.90;;
10134;SDS011;5107;48.850;8.924;2023-10-08T03:46:37;7.27;;;3.17;;
10134;SDS011;5107;48.850;8.924;2023-10-08T03:49:10;7.53;;;2.97;;
10134;SDS011;5107;48.850;8.924;2023-10-08T03:51:48;4.37;;;2.30;;
10134;SDS011;5107;48.850;8.924;2023-10-08T03:54:17;4.17;;;3.10;;
10134;SDS011;5107;48.850;8.924;2023-10-08T03:56:54;5.80;;;3.00;;
10134;SDS011;5107;48.850;8.924;2023-10-08T03:59:20;3.80;;;2.50;;
10134;SDS011;5107;48.850;8.924;2023-10-08T04:01:59;9.77;;;3.20;;
10134;SDS011;5107;48.850;8.924;2023-10-08T04:04:48;4.27;;;2.80;;
10134;SDS011;5107;48.850;8.924;2023-10-08T04:07:17;3.83;;;2.70;;
10134;SDS011;5107;48.850;8.924;2023-10-08T04:10:09;4.10;;;2.53;;
10134;SDS011;5107;48.850;8.924;2023-10-08T04:12:35;5.40;;;2.67;;
10134;SDS011;5107;48.850;8.924;2023-10-08T04:15:05;5.10;;;2.53;;
10134;SDS011;5107;48.850;8.924;2023-10-08T04:17:37;5.53;;;2.90;;
10134;SDS011;5107;48.850;8.924;2023-10-08T04:20:10;5.57;;;2.80;;
10134;SDS011;5107;48.850;8.924;2023-10-08T04:22:57;4.07;;;2.60;;
10134;SDS011;5107;48.850;8.924;2023-10-08T04:25:27;4.90;;;2.90;;
10134;SDS011;5107;48.850;8.924;2023-10-08T04:27:54;4.50;;;2.70;;
10134;SDS011;5107;48.850;8.924;2023-10-08T04:30:34;4.80;;;2.70;;
10134;SDS011;5107;48.850;8.924;2023-10-08T04:33:04;5.07;;;2.83;;
10134;SDS011;5107;48.850;8.924;2023-10-08T04:35:33;5.33;;;2.87;;
10134;SDS011;5107;48.850;8.924;2023-10-08T04:38:02;4.63;;;2.77;;
10134;SDS011;5107;48.850;8.924;2023-10-08T04:40:28;5.50;;;3.50;;
10134;SDS011;5107;48.850;8.924;2023-10-08T04:42:58;6.87;;;3.10;;
10134;SDS011;5107;48.850;8.924;2023-10-08T04:45:27;6.17;;;3.77;;
10134;SDS011;5107;48.850;8.924;2023-10-08T04:47:52;4.83;;;2.87;;
10134;SDS011;5107;48.850;8.924;2023-10-08T04:50:19;4.50;;;3.33;;
10134;SDS011;5107;48.850;8.924;2023-10-08T04:52:46;4.13;;;2.87;;
10134;SDS011;5107;48.850;8.924;2023-10-08T04:55:23;6.27;;;3.40;;
10134;SDS011;5107;48.850;8.924;2023-10-08T04:57:53;6.63;;;3.40;;
10134;SDS011;5107;48.850;8.924;2023-10-08T05:00:20;5.23;;;3.50;;
10134;SDS011;5107;48.850;8.924;2023-10-08T05:03:06;5.33;;;3.50;;
10134;SDS011;5107;48.850;8.924;2023-10-08T05:05:39;5.87;;;3.50;;
10134;SDS011;5107;48.850;8.924;2023-10-08T05:08:20;4.60;;;3.30;;
10134;SDS011;5107;48.850;8.924;2023-10-08T05:10:58;6.50;;;3.73;;
10134;SDS011;5107;48.850;8.924;2023-10-08T05:13:40;5.33;;;3.00;;
10134;SDS011;5107;48.850;8.924;2023-10-08T05:16:20;5.00;;;3.07;;
10134;SDS011;5107;48.850;8.924;2023-10-08T05:19:00;4.17;;;2.80;;
10134;SDS011;5107;48.850;8.924;2023-10-08T05:21:39;4.13;;;3.10;;
10134;SDS011;5107;48.850;8.924;2023-10-08T05:24:16;5.60;;;3.13;;
10134;SDS011;5107;48.850;8.924;2023-10-08T05:26:52;4.77;;;3.10;;
10134;SDS011;5107;48.850;8.924;2023-10-08T05:29:38;3.47;;;2.80;;
10134;SDS011;5107;48.850;8.924;2023-10-08T05:32:38;4.83;;;3.27;;
10134;SDS011;5107;48.850;8.924;2023-10-08T05:35:11;6.57;;;2.90;;
10134;SDS011;5107;48.850;8.924;2023-10-08T05:38:06;6.37;;;3.00;;
10134;SDS011;5107;48.850;8.924;2023-10-08T05:40:47;5.13;;;3.10;;
10134;SDS011;5107;48.850;8.924;2023-10-08T05:43:31;6.57;;;3.10;;
10134;SDS011;5107;48.850;8.924;2023-10-08T05:46:05;8.77;;;2.83;;
10134;SDS011;5107;48.850;8.924;2023-10-08T05:48:56;5.43;;;3.27;;
10134;SDS011;5107;48.850;8.924;2023-10-08T05:51:33;6.60;;;3.00;;
10134;SDS011;5107;48.850;8.924;2023-10-08T05:54:30;3.80;;;2.80;;
10134;SDS011;5107;48.850;8.924;2023-10-08T05:57:01;5.60;;;2.90;;
10134;SDS011;5107;48.850;8.924;2023-10-08T05:59:36;6.77;;;2.90;;
10134;SDS011;5107;48.850;8.924;2023-10-08T06:02:24;5.77;;;3.10;;
10134;SDS011;5107;48.850;8.924;2023-10-08T06:15:34;5.27;;;3.27;;
10134;SDS011;5107;48.850;8.924;2023-10-08T06:18:16;5.17;;;3.30;;
10134;SDS011;5107;48.850;8.924;2023-10-08T06:20:45;5.93;;;3.13;;
10134;SDS011;5107;48.850;8.924;2023-10-08T06:23:12;5.17;;;3.53;;
10134;SDS011;5107;48.850;8.924;2023-10-08T06:25:43;9.03;;;3.83;;
10134;SDS011;5107;48.850;8.924;2023-10-08T06:28:14;4.53;;;3.50;;
10134;SDS011;5107;48.850;8.924;2023-10-08T06:30:45;7.27;;;3.90;;
10134;SDS011;5107;48.850;8.924;2023-10-08T06:33:14;6.73;;;4.00;;
10134;SDS011;5107;48.850;8.924;2023-10-08T06:35:41;8.07;;;3.50;;
10134;SDS011;5107;48.850;8.924;2023-10-08T06:38:21;7.40;;;3.37;;
10134;SDS011;5107;48.850;8.924;2023-10-08T06:40:49;5.37;;;3.40;;
10134;SDS011;5107;48.850;8.924;2023-10-08T06:43:17;7.93;;;3.33;;
10134;SDS011;5107;48.850;8.924;2023-10-08T06:45:51;6.13;;;3.60;;
10134;SDS011;5107;48.850;8.924;2023-10-08T06:48:23;5.27;;;3.13;;
10134;SDS011;5107;48.850;8.924;2023-10-08T06:50:49;6.03;;;3.30;;
10134;SDS011;5107;48.850;8.924;2023-10-08T06:53:16;5.90;;;3.67;;
10134;SDS011;5107;48.850;8.924;2023-10-08T06:55:46;5.27;;;3.43;;
10134;SDS011;5107;48.850;8.924;2023-10-08T06:58:24;7.33;;;3.57;;
10134;SDS011;5107;48.850;8.924;2023-10-08T07:00:49;5.57;;;3.37;;
10134;SDS011;5107;48.850;8.924;2023-10-08T07:03:15;6.07;;;3.60;;
10134;SDS011;5107;48.850;8.924;2023-10-08T07:05:46;4.57;;;3.40;;
10134;SDS011;5107;48.850;8.924;2023-10-08T07:08:30;5.00;;;3.73;;
10134;SDS011;5107;48.850;8.924;2023-10-08T07:10:56;7.13;;;3.67;;
10134;SDS011;5107;48.850;8.924;2023-10-08T07:13:24;6.22;;;3.65;;
10134;SDS011;5107;48.850;8.924;2023-10-08T07:15:49;7.63;;;3.70;;
10134;SDS011;5107;48.850;8.924;2023-10-08T07:18:15;5.30;;;3.42;;
10134;SDS011;5107;48.850;8.924;2023-10-08T07:20:49;6.43;;;3.55;;
10134;SDS011;5107;48.850;8.924;2023-10-08T07:23:19;6.97;;;4.05;;
10134;SDS011;5107;48.850;8.924;2023-10-08T07:25:46;5.30;;;3.30;;
10134;SDS011;5107;48.850;8.924;2023-10-08T07:28:17;4.25;;;3.20;;
10134;SDS011;5107;48.850;8.924;2023-10-08T07:30:44;5.22;;;3.67;;
10134;SDS011;5107;48.850;8.924;2023-10-08T07:33:10;5.18;;;3.53;;
10134;SDS011;5107;48.850;8.924;2023-10-08T07:35:46;8.32;;;3.88;;
10134;SDS011;5107;48.850;8.924;2023-10-08T07:38:38;7.07;;;4.20;;
10134;SDS011;5107;48.850;8.924;2023-10-08T07:41:07;7.88;;;4.15;;
10134;SDS011;5107;48.850;8.924;2023-10-08T07:43:33;8.07;;;3.63;;
10134;SDS011;5107;48.850;8.924;2023-10-08T07:45:58;5.03;;;3.67;;
10134;SDS011;5107;48.850;8.924;2023-10-08T07:48:25;5.17;;;3.37;;
10134;SDS011;5107;48.850;8.924;2023-10-08T07:50:54;5.40;;;3.53;;
10134;SDS011;5107;48.850;8.924;2023-10-08T07:53:20;5.47;;;3.30;;
10134;SDS011;5107;48.850;8.924;2023-10-08T07:55:46;5.67;;;3.50;;
10134;SDS011;5107;48.850;8.924;2023-10-08T07:58:13;8.23;;;3.70;;
10134;SDS011;5107;48.850;8.924;2023-10-08T08:00:40;7.50;;;3.60;;
10134;SDS011;5107;48.850;8.924;2023-10-08T08:03:06;9.83;;;3.37;;
10134;SDS011;5107;48.850;8.924;2023-10-08T08:05:31;7.83;;;3.70;;
10134;SDS011;5107;48.850;8.924;2023-10-08T08:07:58;5.67;;;3.73;;
10134;SDS011;5107;48.850;8.924;2023-10-08T08:10:30;6.60;;;3.60;;
10134;SDS011;5107;48.850;8.924;2023-10-08T08:13:02;5.10;;;3.57;;
10134;SDS011;5107;48.850;8.924;2023-10-08T08:15:31;4.85;;;3.50;;
10134;SDS011;5107;48.850;8.924;2023-10-08T08:17:58;6.20;;;3.72;;
10134;SDS011;5107;48.850;8.924;2023-10-08T08:20:23;7.28;;;3.85;;
10134;SDS011;5107;48.850;8.924;2023-10-08T08:22:59;5.78;;;3.83;;
10134;SDS011;5107;48.850;8.924;2023-10-08T08:25:34;6.40;;;4.05;;
10134;SDS011;5107;48.850;8.924;2023-10-08T08:28:10;11.38;;;5.35;;
10134;SDS011;5107;48.850;8.924;2023-10-08T08:30:42;8.27;;;4.30;;
10134;SDS011;5107;48.850;8.924;2023-10-08T08:33:17;9.65;;;4.25;;
10134;SDS011;5107;48.850;8.924;2023-10-08T08:35:57;7.10;;;3.92;;
10134;SDS011;5107;48.850;8.924;2023-10-08T08:38:23;7.03;;;3.88;;
10134;SDS011;5107;48.850;8.924;2023-10-08T08:40:49;4.72;;;3.65;;
10134;SDS011;5107;48.850;8.924;2023-10-08T08:43:14;9.40;;;3.97;;
10134;SDS011;5107;48.850;8.924;2023-10-08T08:45:41;6.78;;;3.47;;
10134;SDS011;5107;48.850;8.924;2023-10-08T08:48:08;4.63;;;3.33;;
10134;SDS011;5107;48.850;8.924;2023-10-08T08:50:34;5.43;;;3.80;;
10134;SDS011;5107;48.850;8.924;2023-10-08T08:53:00;6.07;;;3.63;;
10134;SDS011;5107;48.850;8.924;2023-10-08T08:55:28;10.00;;;3.60;;
10134;SDS011;5107;48.850;8.924;2023-10-08T08:57:57;6.55;;;3.90;;
10134;SDS011;5107;48.850;8.924;2023-10-08T09:00:24;6.03;;;3.50;;
10134;SDS011;5107;48.850;8.924;2023-10-08T09:02:54;8.30;;;3.80;;
10134;SDS011;5107;48.850;8.924;2023-10-08T09:05:20;5.20;;;3.38;;
10134;SDS011;5107;48.850;8.924;2023-10-08T09:07:59;4.18;;;3.22;;
10134;SDS011;5107;48.850;8.924;2023-10-08T09:10:30;4.68;;;3.30;;
10134;SDS011;5107;48.850;8.924;2023-10-08T09:13:02;8.65;;;4.03;;
10134;SDS011;5107;48.850;8.924;2023-10-08T09:15:28;7.30;;;3.85;;
10134;SDS011;5107;48.850;8.924;2023-10-08T09:17:57;8.65;;;6.63;;
10134;SDS011;5107;48.850;8.924;2023-10-08T09:20:25;5.45;;;4.05;;
10134;SDS011;5107;48.850;8.924;2023-10-08T09:23:05;5.55;;;3.30;;
10134;SDS011;5107;48.850;8.924;2023-10-08T09:25:49;5.60;;;3.80;;
10134;SDS011;5107;48.850;8.924;2023-10-08T09:28:15;8.27;;;3.70;;
10134;SDS011;5107;48.850;8.924;2023-10-08T09:30:42;6.30;;;4.13;;
10134;SDS011;5107;48.850;8.924;2023-10-08T09:33:10;6.28;;;3.47;;
10134;SDS011;5107;48.850;8.924;2023-10-08T09:35:40;6.07;;;3.40;;
10134;SDS011;5107;48.850;8.924;2023-10-08T09:38:08;13.18;;;9.27;;
10134;SDS011;5107;48.850;8.924;2023-10-08T09:40:35;7.10;;;3.70;;
10134;SDS011;5107;48.850;8.924;2023-10-08T09:43:02;6.75;;;3.72;;
10134;SDS011;5107;48.850;8.924;2023-10-08T09:45:29;13.48;;;4.20;;
10134;SDS011;5107;48.850;8.924;2023-10-08T09:47:55;7.30;;;3.90;;
10134;SDS011;5107;48.850;8.924;2023-10-08T09:50:24;8.50;;;3.95;;
10134;SDS011;5107;48.850;8.924;2023-10-08T09:53:01;10.07;;;3.90;;
10134;SDS011;5107;48.850;8.924;2023-10-08T09:55:36;11.30;;;4.30;;
10134;SDS011;5107;48.850;8.924;2023-10-08T09:58:02;7.88;;;3.72;;
10134;SDS011;5107;48.850;8.924;2023-10-08T10:00:29;9.63;;;4.32;;
10134;SDS011;5107;48.850;8.924;2023-10-08T10:02:59;7.70;;;3.70;;
10134;SDS011;5107;48.850;8.924;2023-10-08T10:05:28;8.10;;;3.92;;
10134;SDS011;5107;48.850;8.924;2023-10-08T10:07:55;12.40;;;4.20;;
10134;SDS011;5107;48.850;8.924;2023-10-08T10:10:25;8.13;;;4.10;;
10134;SDS011;5107;48.850;8.924;2023-10-08T10:12:57;8.40;;;3.97;;
10134;SDS011;5107;48.850;8.924;2023-10-08T10:15:24;8.95;;;4.20;;
10134;SDS011;5107;48.850;8.924;2023-10-08T10:17:50;7.72;;;4.47;;
10134;SDS011;5107;48.850;8.924;2023-10-08T10:20:16;9.23;;;3.83;;
10134;SDS011;5107;48.850;8.924;2023-10-08T10:22:42;10.38;;;4.82;;
10134;SDS011;5107;48.850;8.924;2023-10-08T10:25:09;7.10;;;3.97;;
10134;SDS011;5107;48.850;8.924;2023-10-08T10:30:16;15.80;;;10.48;;
10134;SDS011;5107;48.850;8.924;2023-10-08T10:32:44;11.82;;;4.93;;
10134;SDS011;5107;48.850;8.924;2023-10-08T10:35:14;10.23;;;4.60;;
10134;SDS011;5107;48.850;8.924;2023-10-08T10:37:42;17.95;;;13.68;;
10134;SDS011;5107;48.850;8.924;2023-10-08T10:40:19;10.23;;;4.38;;
10134;SDS011;5107;48.850;8.924;2023-10-08T10:42:55;9.98;;;4.40;;
10134;SDS011;5107;48.850;8.924;2023-10-08T10:45:21;9.45;;;4.00;;
10134;SDS011;5107;48.850;8.924;2023-10-08T10:48:05;11.07;;;4.25;;
10134;SDS011;5107;48.850;8.924;2023-10-08T10:50:43;13.13;;;4.40;;
10134;SDS011;5107;48.850;8.924;2023-10-08T10:53:36;10.07;;;4.30;;
10134;SDS011;5107;48.850;8.924;2023-10-08T10:56:38;8.02;;;4.70;;
10134;SDS011;5107;48.850;8.924;2023-10-08T10:59:08;12.57;;;4.50;;
10134;SDS011;5107;48.850;8.924;2023-10-08T11:01:52;11.93;;;4.57;;
10134;SDS011;5107;48.850;8.924;2023-10-08T11:04:20;12.40;;;4.65;;
10134;SDS011;5107;48.850;8.924;2023-10-08T11:06:53;12.38;;;4.72;;
10134;SDS011;5107;48.850;8.924;2023-10-08T11:09:23;7.20;;;4.10;;
10134;SDS011;5107;48.850;8.924;2023-10-08T11:12:03;11.68;;;4.38;;
10134;SDS011;5107;48.850;8.924;2023-10-08T11:14:40;14.45;;;4.65;;
10134;SDS011;5107;48.850;8.924;2023-10-08T11:17:13;12.05;;;4.57;;
10134;SDS011;5107;48.850;8.924;2023-10-08T11:19:43;8.90;;;4.55;;
10134;SDS011;5107;48.850;8.924;2023-10-08T11:22:11;8.73;;;4.55;;
10134;SDS011;5107;48.850;8.924;2023-10-08T11:24:46;13.75;;;4.85;;
10134;SDS011;5107;48.850;8.924;2023-10-08T11:27:16;10.77;;;4.38;;
10134;SDS011;5107;48.850;8.924;2023-10-08T11:29:46;10.25;;;4.93;;
10134;SDS011;5107;48.850;8.924;2023-10-08T11:32:13;9.27;;;4.85;;
10134;SDS011;5107;48.850;8.924;2023-10-08T11:34:47;14.50;;;4.60;;
10134;SDS011;5107;48.850;8.924;2023-10-08T11:37:15;13.88;;;5.50;;
10134;SDS011;5107;48.850;8.924;2023-10-08T11:39:51;9.43;;;4.63;;
10134;SDS011;5107;48.850;8.924;2023-10-08T11:42:18;16.85;;;11.05;;
10134;SDS011;5107;48.850;8.924;2023-10-08T11:44:59;7.78;;;5.13;;
10134;SDS011;5107;48.850;8.924;2023-10-08T11:47:25;11.80;;;5.18;;
10134;SDS011;5107;48.850;8.924;2023-10-08T11:49:56;11.52;;;5.00;;
10134;SDS011;5107;48.850;8.924;2023-10-08T11:52:35;12.25;;;4.70;;
10134;SDS011;5107;48.850;8.924;2023-10-08T11:55:09;11.55;;;4.47;;
10134;SDS011;5107;48.850;8.924;2023-10-08T11:57:39;13.70;;;4.75;;
10134;SDS011;5107;48.850;8.924;2023-10-08T12:00:10;14.15;;;5.15;;
10134;SDS011;5107;48.850;8.924;2023-10-08T12:02:52;12.95;;;4.68;;
10134;SDS011;5107;48.850;8.924;2023-10-08T12:05:21;11.85;;;4.82;;
10134;SDS011;5107;48.850;8.924;2023-10-08T12:07:53;12.80;;;4.28;;
10134;SDS011;5107;48.850;8.924;2023-10-08T12:10:22;12.40;;;4.53;;
10134;SDS011;5107;48.850;8.924;2023-10-08T12:12:52;12.95;;;4.97;;
10134;SDS011;5107;48.850;8.924;2023-10-08T12:15:19;20.90;;;4.75;;
10134;SDS011;5107;48.850;8.924;2023-10-08T12:17:48;8.90;;;4.50;;
10134;SDS011;5107;48.850;8.924;2023-10-08T12:20:33;17.73;;;4.93;;
10134;SDS011;5107;48.850;8.924;2023-10-08T12:23:02;14.35;;;5.00;;
10134;SDS011;5107;48.850;8.924;2023-10-08T12:25:29;12.50;;;5.07;;
10134;SDS011;5107;48.850;8.924;2023-10-08T12:27:57;9.90;;;4.57;;
10134;SDS011;5107;48.850;8.924;2023-10-08T12:30:23;12.75;;;4.97;;
10134;SDS011;5107;48.850;8.924;2023-10-08T12:32:56;17.48;;;5.55;;
10134;SDS011;5107;48.850;8.924;2023-10-08T12:35:22;15.98;;;5.13;;
10134;SDS011;5107;48.850;8.924;2023-10-08T12:37:49;14.75;;;4.97;;
10134;SDS011;5107;48.850;8.924;2023-10-08T12:40:18;15.20;;;5.40;;
10134;SDS011;5107;48.850;8.924;2023-10-08T12:42:58;14.05;;;4.90;;
10134;SDS011;5107;48.850;8.924;2023-10-08T12:45:25;14.00;;;5.40;;
10134;SDS011;5107;48.850;8.924;2023-10-08T12:47:52;10.75;;;5.10;;
10134;SDS011;5107;48.850;8.924;2023-10-08T12:50:18;11.98;;;5.13;;
10134;SDS011;5107;48.850;8.924;2023-10-08T12:52:57;10.68;;;5.13;;
10134;SDS011;5107;48.850;8.924;2023-10-08T12:55:22;14.80;;;5.82;;
10134;SDS011;5107;48.850;8.924;2023-10-08T12:57:58;8.18;;;4.50;;
10134;SDS011;5107;48.850;8.924;2023-10-08T13:00:37;14.00;;;5.00;;
10134;SDS011;5107;48.850;8.924;2023-10-08T13:03:03;16.38;;;5.20;;
10134;SDS011;5107;48.850;8.924;2023-10-08T13:05:31;15.40;;;5.55;;
10134;SDS011;5107;48.850;8.924;2023-10-08T13:07:58;11.23;;;4.50;;
10134;SDS011;5107;48.850;8.924;2023-10-08T13:10:28;11.60;;;4.50;;
10134;SDS011;5107;48.850;8.924;2023-10-08T13:12:56;16.67;;;5.25;;
10134;SDS011;5107;48.850;8.924;2023-10-08T13:15:21;13.75;;;4.90;;
10134;SDS011;5107;48.850;8.924;2023-10-08T13:17:50;9.07;;;4.50;;
10134;SDS011;5107;48.850;8.924;2023-10-08T13:20:16;10.27;;;4.88;;
10134;SDS011;5107;48.850;8.924;2023-10-08T13:22:42;11.05;;;5.03;;
10134;SDS011;5107;48.850;8.924;2023-10-08T13:25:08;17.10;;;4.88;;
10134;SDS011;5107;48.850;8.924;2023-10-08T13:27:34;11.45;;;4.35;;
10134;SDS011;5107;48.850;8.924;2023-10-08T13:30:04;8.10;;;4.45;;
10134;SDS011;5107;48.850;8.924;2023-10-08T13:32:33;15.20;;;4.60;;
10134;SDS011;5107;48.850;8.924;2023-10-08T13:35:00;12.23;;;4.53;;
10134;SDS011;5107;48.850;8.924;2023-10-08T13:37:25;10.15;;;4.20;;
10134;SDS011;5107;48.850;8.924;2023-10-08T13:39:51;9.95;;;4.55;;
10134;SDS011;5107;48.850;8.924;2023-10-08T13:42:18;12.15;;;4.88;;
10134;SDS011;5107;48.850;8.924;2023-10-08T13:44:45;14.52;;;5.05;;
10134;SDS011;5107;48.850;8.924;2023-10-08T13:47:11;14.65;;;4.43;;
10134;SDS011;5107;48.850;8.924;2023-10-08T13:49:40;13.43;;;4.90;;
10134;SDS011;5107;48.850;8.924;2023-10-08T13:52:07;16.63;;;4.78;;
10134;SDS011;5107;48.850;8.924;2023-10-08T13:54:33;15.15;;;4.78;;
10134;SDS011;5107;48.850;8.924;2023-10-08T13:57:00;18.17;;;5.03;;
10134;SDS011;5107;48.850;8.924;2023-10-08T13:59:26;11.05;;;4.30;;
10134;SDS011;5107;48.850;8.924;2023-10-08T14:01:56;14.05;;;4.50;;
10134;SDS011;5107;48.850;8.924;2023-10-08T14:04:21;14.00;;;4.72;;
10134;SDS011;5107;48.850;8.924;2023-10-08T14:06:55;12.85;;;4.38;;
10134;SDS011;5107;48.850;8.924;2023-10-08T14:09:23;14.68;;;4.97;;
10134;SDS011;5107;48.850;8.924;2023-10-08T14:12:01;19.95;;;4.50;;
10134;SDS011;5107;48.850;8.924;2023-10-08T14:14:28;13.98;;;4.70;;
10134;SDS011;5107;48.850;8.924;2023-10-08T14:16:58;12.13;;;4.25;;
10134;SDS011;5107;48.850;8.924;2023-10-08T14:19:36;10.27;;;4.90;;
10134;SDS011;5107;48.850;8.924;2023-10-08T14:22:08;11.88;;;5.03;;
10134;SDS011;5107;48.850;8.924;2023-10-08T14:24:38;14.70;;;5.07;;
10134;SDS011;5107;48.850;8.924;2023-10-08T14:27:04;12.77;;;4.28;;
10134;SDS011;5107;48.850;8.924;2023-10-08T14:29:35;11.13;;;4.53;;
10134;SDS011;5107;48.850;8.924;2023-10-08T14:32:05;11.50;;;4.90;;
10134;SDS011;5107;48.850;8.924;2023-10-08T14:34:34;10.82;;;4.75;;
10134;SDS011;5107;48.850;8.924;2023-10-08T14:37:13;15.63;;;4.65;;
10134;SDS011;5107;48.850;8.924;2023-10-08T14:39:57;14.30;;;4.78;;
10134;SDS011;5107;48.850;8.924;2023-10-08T14:42:41;8.88;;;4.38;;
10134;SDS011;5107;48.850;8.924;2023-10-08T14:45:23;13.50;;;4.38;;
10134;SDS011;5107;48.850;8.924;2023-10-08T14:47:53;11.60;;;4.57;;
10134;SDS011;5107;48.850;8.924;2023-10-08T14:50:20;8.68;;;3.78;;
10134;SDS011;5107;48.850;8.924;2023-10-08T14:52:47;8.02;;;4.13;;
10134;SDS011;5107;48.850;8.924;2023-10-08T14:55:13;12.07;;;4.30;;
10134;SDS011;5107;48.850;8.924;2023-10-08T14:57:38;8.95;;;4.57;;
10134;SDS011;5107;48.850;8.924;2023-10-08T15:00:05;16.00;;;3.85;;
10134;SDS011;5107;48.850;8.924;2023-10-08T15:02:31;12.15;;;4.30;;
10134;SDS011;5107;48.850;8.924;2023-10-08T15:04:58;11.48;;;4.43;;
10134;SDS011;5107;48.850;8.924;2023-10-08T15:07:26;14.77;;;4.78;;
10134;SDS011;5107;48.850;8.924;2023-10-08T15:09:52;10.05;;;4.45;;
10134;SDS011;5107;48.850;8.924;2023-10-08T15:12:20;7.95;;;4.15;;
10134;SDS011;5107;48.850;8.924;2023-10-08T15:14:47;10.25;;;4.18;;
10134;SDS011;5107;48.850;8.924;2023-10-08T15:17:15;13.93;;;4.97;;
10134;SDS011;5107;48.850;8.924;2023-10-08T15:19:42;8.73;;;4.68;;
10134;SDS011;5107;48.850;8.924;2023-10-08T15:22:07;9.70;;;4.30;;
10134;SDS011;5107;48.850;8.924;2023-10-08T15:24:33;12.73;;;4.03;;
10134;SDS011;5107;48.850;8.924;2023-10-08T15:27:01;9.38;;;4.30;;
10134;SDS011;5107;48.850;8.924;2023-10-08T15:29:27;11.45;;;4.47;;
10134;SDS011;5107;48.850;8.924;2023-10-08T15:31:53;9.32;;;4.22;;
10134;SDS011;5107;48.850;8.924;2023-10-08T15:34:20;14.00;;;4.78;;
10134;SDS011;5107;48.850;8.924;2023-10-08T15:36:49;11.48;;;4.07;;